Allen Junction, WV (25810)

3:58 AM EST on February 13, 2016 (GMT -0500)
MullensHill | | Change Station
CLOSE
Current Station
Personal Weather Station
Location: Mullens, WV
Elevation: 1585 ft
Nearby Weather Stations

Elev 1585 ft 37.58 °N, 81.39 °W | Updated 6 minutes ago

Overcast
Overcast
17.8 °F
Feels Like 18 °F
N
1.6
Wind Variable Wind from East
Gusts 3.8 mph

Today
High -- | Low -- °F
--% Chance of Precip.
Yesterday
High -- | Low -- °F
Precip. -- in
Pressure 30.25 in
Visibility 1.8 miles
Clouds Overcast 2100 ft
Windchill 18 °F
Dew Point 13 °F
Humidity 81%
Rainfall 0.00 in
Snow Depth Not available.
7:17 AM 6:02 PM
Waxing Crescent, 28% visible
METAR KBKW 130851Z AUTO 32009KT 1 3/4SM HZ OVC021 M11/M14 A3011 RMK AO2 VIS 1 RWY19 SLP243 60001 T11111139 53014 PWINO FZRANO $
Pressure 30.25 in
Visibility 1.8 miles
Clouds Overcast 2100 ft
Windchill 18 °F
Dew Point 13 °F
Humidity 81%
Rainfall 0.00 in
Snow Depth Not available.
7:17 AM 6:02 PM
Waxing Crescent, 28% visible
METAR KBKW 130851Z AUTO 32009KT 1 3/4SM HZ OVC021 M11/M14 A3011 RMK AO2 VIS 1 RWY19 SLP243 60001 T11111139 53014 PWINO FZRANO $

10-Day Weather Forecast

Almanac

Astronomy

Feb. 13, 2016 Rise Set
Actual Time
Civil Twilight
Nautical Twilight
Astronomical Twilight
Moon
Length of Visible Light
Length of Day
Tomorrow will be .
, % of the Moon is Illuminated

Today's Extremes

State Highs State Lows

Community

WunderPhotos

Upload Photos

1,892,536 photos uploaded!

WunderBlog® & News

Nearby

Air Quality

  Air Quality AQ Index Pollutant
Not available.

Snow Depth

Station Depth Elevation

Earthquake Activity

City Distance Mag. Time & Date
Minimum magnitude displayed is 2.5.

Coastal Water Temperatures

Place Temperature

Stations

Nearby Weather Stations

Station Location Temp. Windchill Dew Point Humidity Wind Precip. Elev Updated Type
                   

Watches & Warnings

There are currently no watches in effect.